Time;durP1;ratioP1;P1;durP2;ratioP2;P2;SDS_P1;SDS_P2;PMS_P1;PMS_P2;Temp;Humidity;BMP_temperature;BMP_pressure;BME280_temperature;BME280_humidity;BME280_pressure;Samples;Min_cycle;Max_cycle;Signal;HPM_P1;HPM_P2
2022/03/22 00:00:09;;;;;;;6.35;5.75;;;21.50;41.90;;;;;;5145530;27;43444;-61
2022/03/22 00:02:41;;;;;;;6.00;5.50;;;21.50;41.90;;;;;;5143105;27;44682;-60
2022/03/22 00:05:09;;;;;;;6.25;5.65;;;21.50;41.90;;;;;;5145257;27;44184;-60
2022/03/22 00:07:36;;;;;;;6.13;5.63;;;21.50;41.90;;;;;;5145470;27;43467;-61
2022/03/22 00:10:04;;;;;;;5.88;5.38;;;21.50;41.90;;;;;;5145260;27;43445;-60
2022/03/22 00:12:32;;;;;;;6.20;5.70;;;21.40;42.00;;;;;;5122472;27;44695;-60
2022/03/22 00:15:02;;;;;;;5.97;5.47;;;21.40;42.00;;;;;;5144869;27;43453;-61
2022/03/22 00:17:50;;;;;;;6.80;6.20;;;21.40;42.00;;;;;;5142968;27;43541;-61
2022/03/22 00:20:17;;;;;;;5.65;5.15;;;21.40;41.90;;;;;;5151806;27;43584;-61
2022/03/22 00:22:45;;;;;;;5.88;5.38;;;21.30;42.70;;;;;;5141971;27;44935;-61
2022/03/22 00:25:16;;;;;;;6.00;5.50;;;21.30;42.10;;;;;;5145123;27;43518;-60
2022/03/22 00:27:53;;;;;;;6.30;5.80;;;21.30;42.00;;;;;;5145449;27;43425;-61
2022/03/22 00:30:27;;;;;;;6.22;5.72;;;21.30;42.20;;;;;;5144476;27;43533;-61
2022/03/22 00:32:57;;;;;;;6.50;5.90;;;21.30;41.90;;;;;;5144973;27;44696;-60
2022/03/22 00:35:29;;;;;;;6.00;5.50;;;21.30;42.00;;;;;;5139219;27;43508;-61
2022/03/22 00:37:59;;;;;;;6.05;5.55;;;21.30;42.10;;;;;;5144996;27;43438;-60
2022/03/22 00:40:28;;;;;;;6.18;5.68;;;21.20;42.00;;;;;;5144246;27;44117;-61
2022/03/22 00:42:57;;;;;;;5.80;5.35;;;21.20;42.00;;;;;;5148408;27;44011;-61
2022/03/22 00:45:37;;;;;;;6.32;5.82;;;21.20;42.10;;;;;;5148499;27;43462;-61
2022/03/22 00:48:07;;;;;;;5.90;5.40;;;21.20;42.10;;;;;;5146403;27;43417;-61
2022/03/22 00:50:37;;;;;;;6.53;5.93;;;21.20;42.00;;;;;;5144353;27;43474;-60
2022/03/22 00:53:07;;;;;;;6.25;5.72;;;21.20;42.10;;;;;;5148295;27;44975;-60
2022/03/22 00:55:36;;;;;;;5.80;5.32;;;21.20;42.00;;;;;;5147958;27;44276;-60
2022/03/22 00:58:04;;;;;;;6.00;5.50;;;21.10;42.00;;;;;;5140155;27;43504;-61
2022/03/22 01:00:31;;;;;;;6.45;5.85;;;21.20;42.00;;;;;;5148622;27;43442;-60
2022/03/22 01:03:01;;;;;;;6.55;5.95;;;21.10;42.00;;;;;;5141132;27;44962;-61
2022/03/22 01:05:30;;;;;;;5.78;5.28;;;21.10;41.90;;;;;;5147878;27;43921;-60
2022/03/22 01:08:01;;;;;;;5.90;5.40;;;21.10;42.10;;;;;;5143681;27;43423;-61
2022/03/22 01:10:30;;;;;;;6.68;6.10;;;21.10;42.10;;;;;;5148140;27;43581;-60
2022/03/22 01:12:58;;;;;;;6.55;5.95;;;21.10;42.10;;;;;;5146938;27;44997;-63
2022/03/22 01:15:32;;;;;;;6.28;5.68;;;21.10;42.20;;;;;;5131816;27;43584;-63
2022/03/22 01:18:06;;;;;;;6.25;5.75;;;21.00;42.00;;;;;;5129813;27;43502;-63
2022/03/22 01:20:38;;;;;;;5.75;5.25;;;21.10;42.10;;;;;;5148012;27;43386;-63
2022/03/22 01:23:07;;;;;;;6.00;5.50;;;21.00;42.00;;;;;;5146420;27;46128;-63
2022/03/22 01:25:36;;;;;;;6.07;5.57;;;21.00;42.10;;;;;;5132391;27;43959;-62
2022/03/22 01:28:06;;;;;;;6.20;5.70;;;21.00;42.10;;;;;;5141819;27;43444;-63
2022/03/22 01:30:35;;;;;;;6.40;5.80;;;20.90;42.00;;;;;;5127253;27;43582;-63
2022/03/22 01:33:05;;;;;;;7.03;6.32;;;21.00;42.00;;;;;;5147445;27;43797;-62
2022/03/22 01:35:32;;;;;;;6.47;5.90;;;21.00;42.00;;;;;;5144139;27;43462;-62
2022/03/22 01:38:00;;;;;;;7.18;6.43;;;20.90;42.10;;;;;;5147653;27;43392;-63
2022/03/22 01:40:29;;;;;;;5.95;5.45;;;20.90;42.10;;;;;;5148091;27;43533;-62
2022/03/22 01:42:58;;;;;;;6.40;5.90;;;20.90;42.10;;;;;;5147097;27;43896;-63
2022/03/22 01:45:26;;;;;;;6.72;6.13;;;20.90;42.20;;;;;;5147460;27;43454;-63
2022/03/22 01:48:00;;;;;;;6.15;5.65;;;20.90;42.20;;;;;;5147644;27;43465;-63
2022/03/22 01:50:29;;;;;;;6.63;6.03;;;20.90;42.20;;;;;;5146577;27;43540;-63
2022/03/22 01:52:59;;;;;;;6.32;5.80;;;20.90;42.20;;;;;;5147483;27;45165;-62
2022/03/22 01:55:28;;;;;;;6.72;6.13;;;20.90;42.20;;;;;;5147331;27;43425;-63
2022/03/22 01:57:56;;;;;;;6.45;5.85;;;20.90;42.20;;;;;;5147631;27;43467;-62
2022/03/22 02:00:25;;;;;;;6.63;6.03;;;20.80;42.10;;;;;;5145588;27;43561;-62
2022/03/22 02:08:17;;;;;;;6.57;6.07;;;20.80;42.20;;;;;;5145306;27;43352;-63
2022/03/22 02:10:45;;;;;;;6.60;6.00;;;20.80;42.10;;;;;;5146849;27;43643;-62
2022/03/22 02:13:13;;;;;;;6.28;5.78;;;20.80;42.10;;;;;;5147034;27;44083;-63
2022/03/22 02:15:41;;;;;;;7.05;6.45;;;20.80;42.20;;;;;;5126879;27;43818;-63
2022/03/22 02:18:09;;;;;;;6.40;5.80;;;20.80;42.00;;;;;;5146733;27;43451;-63
2022/03/22 02:20:37;;;;;;;6.78;6.18;;;20.70;42.10;;;;;;5153386;27;43504;-63
2022/03/22 02:23:16;;;;;;;6.10;5.60;;;20.70;42.00;;;;;;5146521;27;43718;-63
2022/03/22 02:25:44;;;;;;;6.40;5.80;;;20.70;42.10;;;;;;5145247;27;43411;-63
2022/03/22 02:28:11;;;;;;;7.05;6.43;;;20.70;42.10;;;;;;5145673;27;43434;-62
2022/03/22 02:30:39;;;;;;;6.18;5.68;;;20.70;42.00;;;;;;5146776;27;43484;-63
2022/03/22 02:33:06;;;;;;;6.97;6.38;;;20.70;42.10;;;;;;5146650;27;43896;-63
2022/03/22 02:35:34;;;;;;;6.78;6.15;;;20.60;42.20;;;;;;5145856;27;43523;-62
2022/03/22 02:38:01;;;;;;;6.25;5.75;;;20.70;42.10;;;;;;5146513;27;43441;-62
2022/03/22 02:40:29;;;;;;;6.97;6.38;;;20.60;42.10;;;;;;5146610;27;43441;-62
2022/03/22 02:43:00;;;;;;;6.70;6.13;;;20.70;42.00;;;;;;5146243;27;44657;-63
2022/03/22 02:45:28;;;;;;;7.30;6.70;;;20.60;42.00;;;;;;5146300;27;43519;-63
2022/03/22 02:47:56;;;;;;;6.95;6.35;;;20.60;42.00;;;;;;5144313;27;43577;-63
2022/03/22 02:50:23;;;;;;;6.80;6.30;;;20.60;42.60;;;;;;5128150;27;43470;-63
2022/03/22 02:52:51;;;;;;;7.10;6.40;;;20.60;42.00;;;;;;5146468;27;45024;-63
2022/03/22 02:55:21;;;;;;;7.15;6.55;;;20.60;42.10;;;;;;5145962;27;43516;-63
2022/03/22 02:57:48;;;;;;;6.60;6.03;;;20.60;42.00;;;;;;5146407;27;43483;-63
2022/03/22 03:00:17;;;;;;;6.68;6.13;;;20.60;42.10;;;;;;5146420;27;43459;-63
2022/03/22 03:02:48;;;;;;;6.88;6.28;;;20.50;42.00;;;;;;5146019;27;44043;-63
2022/03/22 03:05:17;;;;;;;6.72;6.13;;;20.60;42.00;;;;;;5145766;27;43431;-63
2022/03/22 03:07:45;;;;;;;7.07;6.38;;;20.50;42.00;;;;;;5145739;27;43474;-63
2022/03/22 03:10:12;;;;;;;6.55;5.95;;;20.50;42.00;;;;;;5146134;27;43577;-63
2022/03/22 03:12:40;;;;;;;6.70;6.10;;;20.50;42.00;;;;;;5146422;27;44038;-63
2022/03/22 03:15:09;;;;;;;7.35;6.70;;;20.60;42.00;;;;;;5158357;27;43465;-62
2022/03/22 03:17:37;;;;;;;6.80;6.20;;;20.50;42.00;;;;;;5145537;27;43408;-62
2022/03/22 03:20:06;;;;;;;6.88;6.28;;;20.50;42.00;;;;;;5145228;27;43464;-62
2022/03/22 03:22:34;;;;;;;7.00;6.40;;;20.50;41.90;;;;;;5145625;27;44664;-64
2022/03/22 03:25:02;;;;;;;6.78;6.18;;;20.50;42.00;;;;;;5145404;27;43521;-63
2022/03/22 03:27:30;;;;;;;6.85;6.25;;;20.50;42.00;;;;;;5141466;27;43952;-63
2022/03/22 03:29:57;;;;;;;6.78;6.18;;;20.50;41.90;;;;;;5145994;27;43620;-63
2022/03/22 03:32:25;;;;;;;6.78;6.18;;;20.40;41.90;;;;;;5145743;27;43818;-63
2022/03/22 03:34:53;;;;;;;7.18;6.57;;;20.50;42.00;;;;;;5145280;27;43480;-62
2022/03/22 03:37:23;;;;;;;6.82;6.22;;;20.40;41.90;;;;;;5145448;27;43429;-63
2022/03/22 03:39:51;;;;;;;6.43;5.90;;;20.40;42.00;;;;;;5146226;27;43443;-63
2022/03/22 03:42:19;;;;;;;7.20;6.60;;;20.40;42.10;;;;;;5145728;27;43951;-63
2022/03/22 03:47:34;;;;;;;7.03;6.43;;;20.40;42.10;;;;;;5142253;27;43492;-62
2022/03/22 03:50:05;;;;;;;6.97;6.38;;;20.40;42.00;;;;;;5145590;27;43505;-62
2022/03/22 03:52:35;;;;;;;6.50;6.00;;;20.30;41.90;;;;;;5145584;27;44062;-63
2022/03/22 03:55:05;;;;;;;7.10;6.43;;;20.30;41.90;;;;;;5123190;27;43433;-63
2022/03/22 03:57:34;;;;;;;6.60;6.00;;;20.30;41.90;;;;;;5145705;27;43463;-63
2022/03/22 04:00:03;;;;;;;6.72;6.22;;;20.30;42.00;;;;;;5130557;27;43613;-62
2022/03/22 04:02:40;;;;;;;6.75;6.15;;;20.30;42.00;;;;;;5144966;27;43791;-62
2022/03/22 04:05:11;;;;;;;7.00;6.30;;;20.30;42.00;;;;;;5144469;27;43490;-62
2022/03/22 04:07:39;;;;;;;7.60;6.95;;;20.30;42.00;;;;;;5145584;27;44086;-63
2022/03/22 04:10:06;;;;;;;7.32;6.72;;;20.30;42.00;;;;;;5145398;27;43915;-63
2022/03/22 04:12:40;;;;;;;7.32;6.72;;;20.20;42.00;;;;;;5145211;27;45032;-62
2022/03/22 04:15:08;;;;;;;6.90;6.30;;;20.20;42.00;;;;;;5147971;27;43871;-63
2022/03/22 04:17:38;;;;;;;6.93;6.32;;;20.20;42.10;;;;;;5148824;27;43464;-63
2022/03/22 04:20:07;;;;;;;7.55;6.93;;;20.20;42.00;;;;;;5153680;27;43604;-63
2022/03/22 04:22:35;;;;;;;7.18;6.57;;;20.20;42.00;;;;;;5144743;27;44670;-63
2022/03/22 04:25:04;;;;;;;7.30;6.70;;;20.20;42.10;;;;;;5148427;27;43500;-62
2022/03/22 04:33:04;;;;;;;7.00;6.40;;;20.20;42.10;;;;;;5148729;27;44001;-62
2022/03/22 04:35:32;;;;;;;7.22;6.63;;;20.20;42.00;;;;;;5147220;27;43517;-63
2022/03/22 04:38:00;;;;;;;6.75;6.15;;;20.10;42.00;;;;;;5148360;27;43501;-63
2022/03/22 04:40:27;;;;;;;7.45;6.80;;;20.10;42.00;;;;;;5149021;27;44219;-63
2022/03/22 04:42:55;;;;;;;7.43;6.82;;;20.10;42.00;;;;;;5148379;27;44989;-63
2022/03/22 04:45:24;;;;;;;7.25;6.60;;;20.10;42.00;;;;;;5148299;27;43706;-63
2022/03/22 04:47:51;;;;;;;7.45;6.85;;;20.10;42.00;;;;;;5148167;27;43398;-62
2022/03/22 04:50:19;;;;;;;7.20;6.60;;;20.10;42.00;;;;;;5148283;27;43532;-62
2022/03/22 04:58:19;;;;;;;7.35;6.75;;;20.00;42.00;;;;;;5143703;27;43494;-63
2022/03/22 05:00:46;;;;;;;7.38;6.72;;;20.00;42.00;;;;;;5144198;27;43481;-63
2022/03/22 05:03:14;;;;;;;7.30;6.70;;;20.00;42.00;;;;;;5147100;27;43823;-63
2022/03/22 05:08:28;;;;;;;7.40;6.68;;;20.00;42.10;;;;;;5147964;27;43417;-63
2022/03/22 05:10:55;;;;;;;7.32;6.63;;;20.00;42.10;;;;;;5147274;27;43726;-63
2022/03/22 05:13:23;;;;;;;7.88;7.18;;;20.00;42.00;;;;;;5147629;27;43814;-63
2022/03/22 05:15:51;;;;;;;6.93;6.32;;;20.00;42.10;;;;;;5141783;27;43580;-63
2022/03/22 05:18:20;;;;;;;7.00;6.40;;;19.90;42.00;;;;;;5148013;27;43487;-63
2022/03/22 05:20:48;;;;;;;7.88;7.13;;;19.90;42.00;;;;;;5157130;27;43530;-63
2022/03/22 05:23:17;;;;;;;7.32;6.72;;;19.90;42.00;;;;;;5147167;27;45058;-63
2022/03/22 05:25:45;;;;;;;7.30;6.70;;;19.90;42.00;;;;;;5145796;27;43487;-63
2022/03/22 05:28:12;;;;;;;7.35;6.75;;;19.90;42.00;;;;;;5147407;27;43414;-63
2022/03/22 05:30:40;;;;;;;7.50;6.75;;;19.90;42.00;;;;;;5147292;27;43999;-63
2022/03/22 05:33:07;;;;;;;7.45;6.75;;;19.90;42.10;;;;;;5145803;27;44694;-63
2022/03/22 05:35:35;;;;;;;7.35;6.75;;;19.90;42.00;;;;;;5134286;27;43432;-63
2022/03/22 05:38:03;;;;;;;7.40;6.78;;;19.90;42.00;;;;;;5133337;27;43527;-63
2022/03/22 05:40:30;;;;;;;7.18;6.57;;;19.90;42.00;;;;;;5146811;27;43481;-62
2022/03/22 05:42:58;;;;;;;7.68;6.97;;;19.90;42.10;;;;;;5145108;27;44950;-62
2022/03/22 05:45:28;;;;;;;7.20;6.55;;;19.80;42.20;;;;;;5147324;27;43477;-63
2022/03/22 05:47:56;;;;;;;7.40;6.75;;;19.80;42.20;;;;;;5147301;27;43451;-63
2022/03/22 05:50:24;;;;;;;7.00;6.40;;;19.80;42.20;;;;;;5147055;27;43497;-63
2022/03/22 05:52:51;;;;;;;7.68;6.97;;;19.70;42.20;;;;;;5147156;27;43805;-63
2022/03/22 05:55:19;;;;;;;7.38;6.70;;;19.70;42.20;;;;;;5147086;27;43540;-62
2022/03/22 05:57:46;;;;;;;7.60;6.80;;;19.70;42.30;;;;;;5146554;27;43460;-62
2022/03/22 06:00:14;;;;;;;7.18;6.57;;;19.70;42.30;;;;;;5146219;27;43458;-63
2022/03/22 06:02:42;;;;;;;6.78;6.18;;;19.70;42.30;;;;;;5122615;27;43977;-63
2022/03/22 06:05:11;;;;;;;7.10;6.50;;;19.70;42.20;;;;;;5146818;27;45143;-63
2022/03/22 06:07:40;;;;;;;7.07;6.47;;;19.70;42.30;;;;;;5146947;27;43575;-63
2022/03/22 06:10:09;;;;;;;7.32;6.63;;;19.70;42.30;;;;;;5140834;27;43599;-63
2022/03/22 06:12:48;;;;;;;7.65;6.95;;;19.60;42.30;;;;;;5146775;27;43818;-62
2022/03/22 06:15:21;;;;;;;7.80;7.20;;;19.60;42.30;;;;;;5146871;27;43500;-63
2022/03/22 06:17:51;;;;;;;6.80;6.20;;;19.60;42.30;;;;;;5146634;27;43524;-62
2022/03/22 06:20:20;;;;;;;6.75;6.15;;;19.60;42.40;;;;;;5152925;27;43498;-63
2022/03/22 06:22:48;;;;;;;7.05;6.45;;;19.60;42.50;;;;;;5146701;27;43813;-62
2022/03/22 06:25:19;;;;;;;7.10;6.47;;;19.60;42.50;;;;;;5146410;27;43445;-63
2022/03/22 06:27:49;;;;;;;7.50;6.90;;;19.60;42.50;;;;;;5146318;27;43447;-63
2022/03/22 06:30:18;;;;;;;7.95;7.15;;;19.60;42.50;;;;;;5128373;27;43467;-62
2022/03/22 06:32:51;;;;;;;7.07;6.47;;;19.60;42.50;;;;;;5146723;27;43987;-62
2022/03/22 06:35:38;;;;;;;7.30;6.70;;;19.60;42.60;;;;;;5130492;27;43653;-62
2022/03/22 06:38:06;;;;;;;7.35;6.60;;;19.60;42.60;;;;;;5131377;27;43453;-63
2022/03/22 06:40:34;;;;;;;7.57;6.88;;;19.60;42.80;;;;;;5146484;27;43450;-63
2022/03/22 06:43:03;;;;;;;7.50;6.80;;;19.60;42.60;;;;;;5145893;27;43812;-63
2022/03/22 06:45:36;;;;;;;7.03;6.40;;;19.60;42.60;;;;;;5145622;27;43484;-62
2022/03/22 06:48:06;;;;;;;7.50;6.90;;;19.60;42.70;;;;;;5146069;27;43485;-62
2022/03/22 06:50:35;;;;;;;7.20;6.60;;;19.60;42.70;;;;;;5146241;27;43527;-62
2022/03/22 06:53:04;;;;;;;7.20;6.60;;;19.60;42.80;;;;;;5146084;27;43754;-62
2022/03/22 06:55:33;;;;;;;7.35;6.75;;;19.60;42.70;;;;;;5138722;27;44039;-62
2022/03/22 06:58:00;;;;;;;7.78;6.97;;;19.60;42.60;;;;;;5127593;27;43436;-62
2022/03/22 07:00:28;;;;;;;7.30;6.70;;;19.70;42.70;;;;;;5146510;27;43513;-62
2022/03/22 07:02:56;;;;;;;7.53;6.85;;;19.70;42.60;;;;;;5137265;27;43998;-62
2022/03/22 07:05:24;;;;;;;7.90;7.20;;;19.60;42.50;;;;;;5145984;27;43714;-62
2022/03/22 07:07:52;;;;;;;7.63;6.93;;;19.60;42.50;;;;;;5143151;27;43401;-63
2022/03/22 07:10:19;;;;;;;6.47;5.97;;;19.60;42.60;;;;;;5145708;27;43501;-63
2022/03/22 07:12:47;;;;;;;6.97;6.38;;;19.60;42.70;;;;;;5145339;27;44056;-63
2022/03/22 07:15:15;;;;;;;7.68;6.97;;;19.60;42.70;;;;;;5145593;27;43504;-62
2022/03/22 07:17:44;;;;;;;7.70;7.00;;;19.60;42.80;;;;;;5142057;27;44170;-62
2022/03/22 07:20:12;;;;;;;6.90;6.30;;;19.60;42.70;;;;;;5145710;27;43472;-63
2022/03/22 07:22:41;;;;;;;7.40;6.70;;;19.60;42.80;;;;;;5145385;27;43889;-62
2022/03/22 07:25:09;;;;;;;7.80;7.10;;;19.70;42.90;;;;;;5142894;27;43806;-63
2022/03/22 07:27:36;;;;;;;8.43;7.47;;;19.70;42.90;;;;;;5142994;27;43448;-62
2022/03/22 07:30:05;;;;;;;7.55;6.85;;;19.60;42.90;;;;;;5145875;27;43499;-61
2022/03/22 07:32:33;;;;;;;8.35;7.55;;;19.70;43.70;;;;;;5145337;27;44879;-62
2022/03/22 07:35:01;;;;;;;9.15;8.27;;;19.70;43.20;;;;;;5145129;27;43718;-64
2022/03/22 07:37:29;;;;;;;8.65;7.85;;;19.70;43.00;;;;;;5145590;27;43488;-62
2022/03/22 07:39:57;;;;;;;9.02;8.23;;;19.80;43.00;;;;;;5145615;27;43459;-62
2022/03/22 07:42:27;;;;;;;9.65;8.52;;;19.90;43.00;;;;;;5145105;27;43778;-61
2022/03/22 07:45:01;;;;;;;9.35;8.10;;;20.10;43.00;;;;;;5145460;27;43817;-62
2022/03/22 07:47:29;;;;;;;8.75;7.85;;;20.20;42.70;;;;;;5145477;27;43409;-62
2022/03/22 07:55:40;;;;;;;8.13;7.32;;;20.70;42.70;;;;;;5145428;27;43627;-63
2022/03/22 07:58:09;;;;;;;9.23;7.90;;;20.90;42.60;;;;;;5143247;27;43559;-62
2022/03/22 08:00:40;;;;;;;9.05;7.90;;;21.00;42.50;;;;;;5145402;27;43477;-63
2022/03/22 08:03:10;;;;;;;9.65;7.47;;;21.10;42.30;;;;;;5144211;27;43819;-63
2022/03/22 08:05:39;;;;;;;8.93;7.13;;;21.30;42.40;;;;;;5145108;27;43681;-62
2022/03/22 08:08:07;;;;;;;8.63;6.95;;;21.30;42.30;;;;;;5143878;27;43501;-61
2022/03/22 08:10:54;;;;;;;7.47;6.78;;;21.40;42.10;;;;;;5145044;27;43522;-62
2022/03/22 08:13:22;;;;;;;8.70;7.47;;;21.50;42.20;;;;;;5145073;27;44261;-61
2022/03/22 08:15:53;;;;;;;8.60;6.60;;;21.60;42.10;;;;;;5143765;27;43381;-62
2022/03/22 08:18:20;;;;;;;10.77;6.80;;;21.70;41.90;;;;;;5144388;27;43404;-62
2022/03/22 08:20:51;;;;;;;8.05;6.72;;;21.80;42.00;;;;;;5147543;27;43543;-62
2022/03/22 08:23:19;;;;;;;9.43;6.80;;;22.00;41.70;;;;;;5141309;27;44122;-62
2022/03/22 08:25:49;;;;;;;7.82;6.22;;;22.10;41.60;;;;;;5143444;27;43912;-62
2022/03/22 08:28:18;;;;;;;7.57;6.35;;;22.20;41.40;;;;;;5143755;27;43492;-62
2022/03/22 08:30:46;;;;;;;6.78;6.18;;;22.30;41.40;;;;;;5142910;27;43460;-62
2022/03/22 08:33:14;;;;;;;7.75;6.13;;;22.40;41.20;;;;;;5135591;27;45326;-62
2022/03/22 08:35:46;;;;;;;7.57;6.78;;;22.60;41.10;;;;;;5143868;27;43547;-62
2022/03/22 08:38:15;;;;;;;7.47;6.13;;;22.70;40.70;;;;;;5125459;27;43498;-62
2022/03/22 08:40:43;;;;;;;7.80;6.05;;;22.80;40.70;;;;;;5144328;27;43670;-63
2022/03/22 08:43:11;;;;;;;5.85;5.35;;;22.90;40.80;;;;;;5141041;27;44204;-62
2022/03/22 08:45:39;;;;;;;6.85;6.10;;;23.00;40.70;;;;;;5143780;27;43875;-62
2022/03/22 08:48:11;;;;;;;8.05;6.32;;;23.00;40.60;;;;;;5143799;27;43456;-62
2022/03/22 08:50:43;;;;;;;7.00;6.30;;;23.10;40.70;;;;;;5143648;27;43603;-62
2022/03/22 08:53:12;;;;;;;6.63;5.47;;;23.10;40.40;;;;;;5142539;27;44070;-62
2022/03/22 08:55:45;;;;;;;7.22;6.50;;;23.10;40.30;;;;;;5140083;27;43411;-62
2022/03/22 08:58:13;;;;;;;6.20;5.60;;;23.20;40.40;;;;;;5143436;27;43528;-62
2022/03/22 09:00:41;;;;;;;6.35;5.68;;;23.20;40.30;;;;;;5146234;27;43650;-62
2022/03/22 09:03:10;;;;;;;6.82;6.22;;;23.20;40.30;;;;;;5146839;27;44370;-62
2022/03/22 09:08:25;;;;;;;6.00;5.47;;;23.30;40.30;;;;;;5146154;27;43470;-62
2022/03/22 09:10:53;;;;;;;6.88;6.28;;;23.30;40.60;;;;;;5146228;27;43623;-62
2022/03/22 09:13:20;;;;;;;6.78;6.18;;;23.30;40.30;;;;;;5146694;27;44985;-62
2022/03/22 09:15:51;;;;;;;6.70;5.95;;;23.30;40.60;;;;;;5146701;27;43481;-62
2022/03/22 09:18:22;;;;;;;7.13;5.88;;;23.30;40.40;;;;;;5147195;27;43485;-63
2022/03/22 09:20:50;;;;;;;6.93;6.22;;;23.30;40.40;;;;;;5146320;27;43501;-62
2022/03/22 09:23:19;;;;;;;6.22;5.63;;;23.30;40.50;;;;;;5147101;27;43832;-62
2022/03/22 09:25:47;;;;;;;5.68;5.22;;;23.30;40.40;;;;;;5145849;27;43530;-63
2022/03/22 09:28:15;;;;;;;5.93;5.45;;;23.30;40.50;;;;;;5128829;27;44064;-63
2022/03/22 09:30:42;;;;;;;6.25;5.53;;;23.30;40.50;;;;;;5146918;27;43529;-62
2022/03/22 09:33:11;;;;;;;5.93;5.43;;;23.30;40.60;;;;;;5139407;27;44204;-62
2022/03/22 09:35:39;;;;;;;6.07;5.47;;;23.30;40.60;;;;;;5142912;27;43546;-63
2022/03/22 09:38:06;;;;;;;6.25;5.65;;;23.30;40.70;;;;;;5145499;27;43472;-63
2022/03/22 09:40:34;;;;;;;5.88;5.28;;;23.30;40.70;;;;;;5146951;27;44048;-63
2022/03/22 09:43:02;;;;;;;6.43;5.78;;;23.30;40.80;;;;;;5146026;27;44696;-62
2022/03/22 09:45:31;;;;;;;5.63;5.13;;;23.30;40.80;;;;;;5143914;27;43815;-63
2022/03/22 09:47:59;;;;;;;5.40;4.90;;;23.30;40.80;;;;;;5145938;27;43968;-63
2022/03/22 09:53:16;;;;;;;6.10;5.50;;;23.30;40.80;;;;;;5146275;27;43834;-63
2022/03/22 09:55:45;;;;;;;5.63;5.13;;;23.30;41.00;;;;;;5127267;27;44356;-63
2022/03/22 09:58:13;;;;;;;6.07;5.38;;;23.30;41.00;;;;;;5145885;27;43449;-62
2022/03/22 10:00:41;;;;;;;6.05;4.65;;;23.30;41.00;;;;;;5145863;27;43473;-62
2022/03/22 10:03:16;;;;;;;5.80;5.28;;;23.30;41.00;;;;;;5144788;27;44075;-63
2022/03/22 10:06:03;;;;;;;5.57;5.07;;;23.30;41.00;;;;;;5143482;27;43931;-62
2022/03/22 10:08:31;;;;;;;6.00;4.88;;;23.30;41.00;;;;;;5141395;27;44104;-62
2022/03/22 10:11:04;;;;;;;5.50;4.57;;;23.30;41.00;;;;;;5145011;27;43444;-64
2022/03/22 10:13:35;;;;;;;5.40;4.90;;;23.30;41.00;;;;;;5140407;27;44650;-63
2022/03/22 10:16:05;;;;;;;5.38;4.88;;;23.30;41.00;;;;;;5121056;27;43690;-63
2022/03/22 10:18:35;;;;;;;5.60;5.10;;;23.30;41.00;;;;;;5142535;27;43449;-63
2022/03/22 10:21:04;;;;;;;5.47;4.73;;;23.40;41.00;;;;;;5145302;27;43471;-63
2022/03/22 10:23:33;;;;;;;5.30;4.80;;;23.30;41.10;;;;;;5145918;27;45079;-63
2022/03/22 10:26:07;;;;;;;5.28;4.78;;;23.30;41.20;;;;;;5146059;27;43505;-63
2022/03/22 10:28:36;;;;;;;5.82;4.95;;;23.30;41.10;;;;;;5145683;27;43444;-63
2022/03/22 10:31:04;;;;;;;5.13;4.72;;;23.30;41.30;;;;;;5145805;27;43528;-63
2022/03/22 10:33:31;;;;;;;5.10;4.60;;;23.40;41.30;;;;;;5142231;27;44104;-63
2022/03/22 10:35:58;;;;;;;4.90;4.47;;;23.40;41.30;;;;;;5138547;27;43989;-63
2022/03/22 10:38:26;;;;;;;6.97;4.95;;;23.40;41.30;;;;;;5145596;27;43537;-63
2022/03/22 10:40:53;;;;;;;5.53;4.90;;;23.40;41.40;;;;;;5145718;27;43468;-63
2022/03/22 10:43:25;;;;;;;6.95;4.43;;;23.40;41.30;;;;;;5144814;27;43792;-63
2022/03/22 10:45:57;;;;;;;5.47;4.45;;;23.40;41.40;;;;;;5138340;27;43702;-63
2022/03/22 10:48:38;;;;;;;5.05;4.55;;;23.40;41.40;;;;;;5144444;27;43592;-63
2022/03/22 10:51:06;;;;;;;5.30;4.80;;;23.40;41.30;;;;;;5142746;27;43583;-63
2022/03/22 10:53:35;;;;;;;5.28;4.60;;;23.40;41.30;;;;;;5145530;27;43825;-63
2022/03/22 10:56:04;;;;;;;7.10;5.00;;;23.50;41.60;;;;;;5145148;27;43504;-64
2022/03/22 10:58:34;;;;;;;5.25;4.70;;;23.50;41.50;;;;;;5141856;27;43445;-64
2022/03/22 11:01:03;;;;;;;4.82;4.43;;;23.50;41.50;;;;;;5145066;27;43623;-64
2022/03/22 11:03:32;;;;;;;4.85;4.43;;;23.50;41.60;;;;;;5142060;27;44698;-64
2022/03/22 11:06:04;;;;;;;6.20;4.32;;;23.50;41.60;;;;;;5143610;27;43475;-64
2022/03/22 11:08:32;;;;;;;5.20;4.28;;;23.60;41.60;;;;;;5142434;27;43448;-64
2022/03/22 11:11:00;;;;;;;5.30;4.20;;;23.60;41.60;;;;;;5143869;27;43451;-63
2022/03/22 11:13:28;;;;;;;5.50;4.80;;;23.60;41.40;;;;;;5145479;27;44033;-64
2022/03/22 11:15:56;;;;;;;4.75;3.97;;;23.60;41.40;;;;;;5145041;27;44157;-64
2022/03/22 11:18:28;;;;;;;4.57;4.18;;;23.60;41.50;;;;;;5143771;27;43563;-64
2022/03/22 11:21:01;;;;;;;4.88;4.38;;;23.60;41.40;;;;;;5143224;27;43595;-63
2022/03/22 11:23:33;;;;;;;4.50;4.10;;;23.70;41.30;;;;;;5144721;27;43784;-64
2022/03/22 11:26:08;;;;;;;4.70;4.18;;;23.70;41.30;;;;;;5123779;27;43765;-64
2022/03/22 11:28:36;;;;;;;4.85;4.43;;;23.70;41.20;;;;;;5144333;27;44080;-64
2022/03/22 11:31:06;;;;;;;4.97;4.50;;;23.70;41.20;;;;;;5141615;27;43480;-64
2022/03/22 11:36:32;;;;;;;4.95;4.45;;;23.70;41.20;;;;;;5131450;27;43559;-64
2022/03/22 11:39:03;;;;;;;5.05;4.20;;;23.80;41.30;;;;;;5144838;27;43513;-64
2022/03/22 11:44:20;;;;;;;5.57;5.07;;;23.80;41.30;;;;;;5144646;27;44953;-64
2022/03/22 11:47:01;;;;;;;5.43;4.93;;;23.80;41.30;;;;;;5144801;27;44789;-64
2022/03/22 11:49:29;;;;;;;4.97;4.50;;;23.90;41.30;;;;;;5144695;27;43517;-64
2022/03/22 11:52:13;;;;;;;5.35;4.70;;;23.90;41.30;;;;;;5144548;27;43928;-64
2022/03/22 11:55:12;;;;;;;4.97;4.50;;;23.90;41.30;;;;;;5126307;27;45141;-63
2022/03/22 11:57:45;;;;;;;5.13;4.63;;;23.90;41.30;;;;;;5130127;27;43484;-65
2022/03/22 12:00:20;;;;;;;5.57;4.63;;;23.90;41.30;;;;;;5125654;27;44163;-64
2022/03/22 12:02:53;;;;;;;4.70;4.30;;;23.90;41.30;;;;;;5142503;27;43511;-64
2022/03/22 12:05:23;;;;;;;4.63;4.22;;;23.90;41.30;;;;;;5144061;27;45166;-64
2022/03/22 12:07:51;;;;;;;4.97;4.57;;;23.90;41.30;;;;;;5142704;27;44086;-64
2022/03/22 12:10:21;;;;;;;5.03;4.28;;;24.00;41.40;;;;;;5144115;27;43534;-64
2022/03/22 12:12:50;;;;;;;4.38;3.97;;;24.00;41.40;;;;;;5144382;27;43661;-64
2022/03/22 12:15:21;;;;;;;4.75;4.25;;;24.00;41.40;;;;;;5141741;27;44053;-63
2022/03/22 12:17:49;;;;;;;4.90;4.50;;;24.00;41.40;;;;;;5119205;27;44032;-63
2022/03/22 12:20:19;;;;;;;5.07;4.57;;;24.00;41.40;;;;;;5139648;27;43488;-63
2022/03/22 12:22:48;;;;;;;4.80;4.40;;;24.00;41.40;;;;;;5140152;27;43483;-64
2022/03/22 12:25:18;;;;;;;4.90;4.50;;;24.10;41.40;;;;;;5143297;27;44752;-64
2022/03/22 12:27:57;;;;;;;5.03;4.47;;;24.10;41.50;;;;;;5142722;27;43707;-64
2022/03/22 12:30:30;;;;;;;5.20;4.50;;;24.20;41.40;;;;;;5140502;27;43526;-64
2022/03/22 12:32:59;;;;;;;4.68;4.28;;;24.20;41.50;;;;;;5141998;27;44087;-64
2022/03/22 12:35:27;;;;;;;4.80;4.40;;;24.20;41.40;;;;;;5141910;27;43798;-64
2022/03/22 12:37:57;;;;;;;5.05;4.55;;;24.20;41.30;;;;;;5140396;27;43527;-62
2022/03/22 12:40:25;;;;;;;4.40;4.00;;;24.20;41.30;;;;;;5147437;27;43529;-63
2022/03/22 12:42:54;;;;;;;4.57;4.18;;;24.20;41.30;;;;;;5147335;27;43496;-63
2022/03/22 12:45:24;;;;;;;4.78;4.30;;;24.30;41.30;;;;;;5144160;27;43935;-64
2022/03/22 12:47:52;;;;;;;4.50;4.10;;;24.30;41.30;;;;;;5147241;27;43772;-64
2022/03/22 12:50:22;;;;;;;4.95;4.45;;;24.30;41.40;;;;;;5147455;27;43473;-64
2022/03/22 12:52:51;;;;;;;4.45;4.05;;;24.30;41.30;;;;;;5145199;27;43641;-63
2022/03/22 12:55:22;;;;;;;4.65;4.20;;;24.30;41.30;;;;;;5146951;27;44879;-64
2022/03/22 12:57:56;;;;;;;4.75;4.35;;;24.30;41.40;;;;;;5147356;27;43528;-62
2022/03/22 13:00:28;;;;;;;4.63;3.92;;;24.40;41.40;;;;;;5147274;27;43564;-63
2022/03/22 13:03:04;;;;;;;4.63;4.22;;;24.40;41.40;;;;;;5128396;27;43546;-63
2022/03/22 13:05:31;;;;;;;3.88;3.58;;;24.40;41.40;;;;;;5147173;27;43854;-62
2022/03/22 13:11:26;;;;;;;4.20;3.90;;;24.40;42.10;;;;;;5146564;27;43489;-64
2022/03/22 13:11:35;;;;;;;4.05;3.65;;;24.40;41.40;;;;;;5144160;27;43460;-63
2022/03/22 13:16:55;;;;;;;4.10;3.70;;;24.40;41.40;;;;;;5146726;27;43790;-63
2022/03/22 13:19:23;;;;;;;3.92;3.63;;;24.40;41.40;;;;;;5146619;27;43495;-63
2022/03/22 13:21:51;;;;;;;4.65;4.22;;;24.40;41.50;;;;;;5146914;27;43912;-63
2022/03/22 13:24:23;;;;;;;4.13;3.83;;;24.50;41.50;;;;;;5146614;27;43830;-64
2022/03/22 13:26:53;;;;;;;4.03;3.72;;;24.50;41.50;;;;;;5147000;27;43789;-63
2022/03/22 13:29:21;;;;;;;4.30;4.00;;;24.50;41.50;;;;;;5128684;27;43542;-64
2022/03/22 13:32:00;;;;;;;4.00;3.60;;;24.50;41.50;;;;;;5146381;27;44062;-63
2022/03/22 13:34:33;;;;;;;4.22;3.88;;;24.50;41.50;;;;;;5146799;27;43551;-64
2022/03/22 13:37:06;;;;;;;3.83;3.53;;;24.60;41.50;;;;;;5138223;27;44040;-63
2022/03/22 13:39:34;;;;;;;3.75;3.42;;;24.60;41.50;;;;;;5143136;27;43946;-64
2022/03/22 13:42:16;;;;;;;3.83;3.53;;;24.60;41.50;;;;;;5146615;27;43445;-63